Aérodrome :
LOGIN :

S'inscrire | Disclaimer

   EN    FR    IT 

 










Légende :    VFR   VFR Marginal   IFR   IFR Intensif   IFR Très Intensif
Visi : 
Plafond : 
>= 8 km
>= 3000ft
5 à 8 km
1000 à 3000 ft
1500m à 5 km
500 à 1000 ft
800 à 1500m
200 à 500 ft
< 800m
< 200 ft
Symboles :   Orages  Brouillard  Fortes neiges  Fortes précipitations  Vent > 20 kt
SIGMETs :   Divers  Orages  Givrage  Turbulence  Onde Orograph.  Cendres Volcan.







- Altitude de l'aérodrome : 1115 ft
- Code IATA : GRZ


LOWG - Graz

DERNIER METAR :
  • 240320Z AUTO VRB01KT 9999 NSC M08/M12 Q1039

METARs EXPIRÉS :
  • 240250Z AUTO VRB01KT 9999 NSC M07/M11 Q1040
  • 240220Z AUTO 34002KT 9999 NSC M07/M11 Q1040
  • 240150Z AUTO 01002KT 9999 NSC M07/M11 Q1040
  • 240120Z AUTO VRB01KT 9999 NSC M08/M11 Q1040
  • 240050Z AUTO VRB01KT 9999 NSC M07/M11 Q1039

TAF TAF LOWG
Valide du 24 à 00h jusqu'au 25 à 00h UTC


232315Z 2400/2424 VRB02KT CAVOK TX04/2414Z TNM08/2403Z
BECMG 2412/2414 07004KT 9999 SCT070 BKN150
Pas de NOTAMs connus pour ce terrain.



MET'MAP, la Météo Aéronautique d'un coup d'oeil ! - Copyright ORBIFLY Décembre 2007 - Disclaimer

ORBIFLY MET'MAP TEAM :

Programmation & Développement : Alexandra Zaïnal
Conception & Développement : Baudouin d'Aumeries
Co-Programmation & Développement : Marc-Olivier Méhu
Soutien technique & logistique : Manuel Goepfert

Contact : metmap@orbifly.com




SOURCES & CREDITS :

   NOAA